createdAt,value
2023-03-06T00:00:27.038Z,2.87
2023-03-06T00:02:53.563Z,2.89
2023-03-06T00:05:20.097Z,2.89
2023-03-06T00:07:46.690Z,2.90
2023-03-06T00:10:18.995Z,2.91
2023-03-06T00:12:45.496Z,2.87
2023-03-06T00:15:12.935Z,2.87
2023-03-06T00:17:40.025Z,2.84
2023-03-06T00:20:07.695Z,2.78
2023-03-06T00:22:34.331Z,2.75
2023-03-06T00:25:00.644Z,2.77
2023-03-06T00:27:27.012Z,2.78
2023-03-06T00:29:57.875Z,2.84
2023-03-06T00:32:24.676Z,2.87
2023-03-06T00:34:54.446Z,2.88
2023-03-06T00:37:23.506Z,2.88
2023-03-06T00:39:50.469Z,2.82
2023-03-06T00:42:17.711Z,2.78
2023-03-06T00:44:44.523Z,2.76
2023-03-06T00:47:11.171Z,2.72
2023-03-06T00:49:37.479Z,2.70
2023-03-06T00:52:04.220Z,2.73
2023-03-06T00:54:30.670Z,2.72
2023-03-06T00:56:56.942Z,2.73
2023-03-06T00:59:23.334Z,2.74
2023-03-06T01:01:49.626Z,2.73
2023-03-06T01:04:15.914Z,2.73
2023-03-06T01:06:42.320Z,2.72
2023-03-06T01:09:08.623Z,2.72
2023-03-06T01:11:35.034Z,2.71
2023-03-06T01:14:01.613Z,2.72
2023-03-06T01:16:27.976Z,2.65
2023-03-06T01:18:54.393Z,2.61
2023-03-06T01:21:20.688Z,2.62
2023-03-06T01:23:47.188Z,2.63
2023-03-06T01:26:14.659Z,2.59
2023-03-06T01:28:41.045Z,2.57
2023-03-06T01:31:09.130Z,2.52
2023-03-06T01:33:36.265Z,2.49
2023-03-06T01:36:07.919Z,2.51
2023-03-06T01:38:35.736Z,2.49
2023-03-06T01:41:03.249Z,2.48
2023-03-06T01:43:33.051Z,2.42
2023-03-06T01:46:22.612Z,2.39
2023-03-06T01:48:52.090Z,2.38
2023-03-06T01:51:18.549Z,2.37
2023-03-06T01:53:46.064Z,2.33
2023-03-06T01:56:14.020Z,2.28
2023-03-06T01:58:42.360Z,2.30
2023-03-06T02:01:10.557Z,2.34
2023-03-06T02:03:37.697Z,2.36
2023-03-06T02:06:04.102Z,2.36
2023-03-06T02:08:31.399Z,2.31
2023-03-06T02:11:05.769Z,2.30
2023-03-06T02:13:32.333Z,2.33
2023-03-06T02:15:58.979Z,2.35
2023-03-06T02:18:25.666Z,2.38
2023-03-06T02:20:55.098Z,2.38
2023-03-06T02:23:38.613Z,2.38
2023-03-06T02:26:06.852Z,2.37
2023-03-06T02:28:33.240Z,2.39
2023-03-06T02:30:59.704Z,2.44
2023-03-06T02:33:28.045Z,2.47
2023-03-06T02:36:06.701Z,2.46
2023-03-06T02:38:39.130Z,2.44
2023-03-06T02:41:08.705Z,2.43
2023-03-06T02:43:39.533Z,2.46
2023-03-06T02:46:06.644Z,2.46
2023-03-06T02:48:33.045Z,2.42
2023-03-06T02:50:59.485Z,2.43
2023-03-06T02:53:25.918Z,2.46
2023-03-06T02:55:52.212Z,2.47
2023-03-06T02:58:18.944Z,2.50
2023-03-06T03:00:45.825Z,2.53
2023-03-06T03:03:12.655Z,2.57
2023-03-06T03:05:38.967Z,2.58
2023-03-06T03:08:05.668Z,2.56
2023-03-06T03:10:32.133Z,2.52
2023-03-06T03:12:58.898Z,2.48
2023-03-06T03:15:25.542Z,2.46
2023-03-06T03:17:51.827Z,2.47
2023-03-06T03:20:19.933Z,2.45
2023-03-06T03:22:51.018Z,2.42
2023-03-06T03:25:18.246Z,2.40
2023-03-06T03:27:44.559Z,2.37
2023-03-06T03:30:11.663Z,2.34
2023-03-06T03:32:38.078Z,2.37
2023-03-06T03:35:06.039Z,2.38
2023-03-06T03:37:32.371Z,2.40
2023-03-06T03:39:59.178Z,2.38
2023-03-06T03:42:25.461Z,2.33
2023-03-06T03:44:51.829Z,2.32
2023-03-06T03:47:18.125Z,2.34
2023-03-06T03:49:44.595Z,2.37
2023-03-06T03:52:10.970Z,2.35
2023-03-06T03:54:37.285Z,2.32
2023-03-06T03:57:03.706Z,2.21
2023-03-06T03:59:30.075Z,2.14
2023-03-06T04:01:56.506Z,2.17
2023-03-06T04:04:22.920Z,2.14
2023-03-06T04:06:49.346Z,2.12
2023-03-06T04:09:15.649Z,2.10
2023-03-06T04:11:41.971Z,2.08
2023-03-06T04:14:08.396Z,2.05
2023-03-06T04:16:34.732Z,2.01
2023-03-06T04:19:01.048Z,1.96
2023-03-06T04:21:29.003Z,1.95
2023-03-06T04:23:55.334Z,1.99
2023-03-06T04:26:21.704Z,1.99
2023-03-06T04:28:47.998Z,2.00
2023-03-06T04:31:14.451Z,2.03
2023-03-06T04:33:40.880Z,2.04
2023-03-06T04:36:07.506Z,2.07
2023-03-06T04:38:33.852Z,2.06
2023-03-06T04:41:00.302Z,2.07
2023-03-06T04:43:26.652Z,2.06
2023-03-06T04:45:53.028Z,2.05
2023-03-06T04:48:19.397Z,2.00
2023-03-06T04:50:46.085Z,2.01
2023-03-06T04:53:12.555Z,1.96
2023-03-06T04:55:38.857Z,1.94
2023-03-06T04:58:05.278Z,1.95
2023-03-06T05:00:31.845Z,1.92
2023-03-06T05:03:00.143Z,1.92
2023-03-06T05:05:27.360Z,1.89
2023-03-06T05:07:54.329Z,1.86
2023-03-06T05:10:21.033Z,1.81
2023-03-06T05:12:47.463Z,1.80
2023-03-06T05:15:14.537Z,1.81
2023-03-06T05:17:41.253Z,1.78
2023-03-06T05:20:11.423Z,1.76
2023-03-06T05:22:37.753Z,1.78
2023-03-06T05:25:04.538Z,1.80
2023-03-06T05:27:31.166Z,1.80
2023-03-06T05:29:57.843Z,1.87
2023-03-06T05:32:24.199Z,1.92
2023-03-06T05:34:50.848Z,1.94
2023-03-06T05:37:17.268Z,1.91
2023-03-06T05:39:43.818Z,1.89
2023-03-06T05:42:10.132Z,1.90
2023-03-06T05:44:36.683Z,1.93
2023-03-06T05:47:03.578Z,2.00
2023-03-06T05:49:35.350Z,2.10
2023-03-06T05:52:03.736Z,2.19
2023-03-06T05:54:31.497Z,2.27
2023-03-06T05:56:57.802Z,2.27
2023-03-06T05:59:25.090Z,2.29
2023-03-06T06:01:51.489Z,2.27
2023-03-06T06:04:17.798Z,2.25
2023-03-06T06:06:44.194Z,2.24
2023-03-06T06:09:12.315Z,2.28
2023-03-06T06:11:40.094Z,2.28
2023-03-06T06:14:06.496Z,2.26
2023-03-06T06:16:32.850Z,2.26
2023-03-06T06:18:59.275Z,2.29
2023-03-06T06:21:25.709Z,2.30
2023-03-06T06:23:51.988Z,2.34
2023-03-06T06:26:18.287Z,2.40
2023-03-06T06:28:44.594Z,2.47
2023-03-06T06:31:12.642Z,2.51
2023-03-06T06:33:40.340Z,2.53
2023-03-06T06:36:15.736Z,2.58
2023-03-06T06:38:42.136Z,2.62
2023-03-06T06:43:55.759Z,2.72
2023-03-06T06:47:05.815Z,2.77
2023-03-06T06:49:09.641Z,2.83
2023-03-06T06:51:35.988Z,2.85
2023-03-06T06:54:02.276Z,2.91
2023-03-06T06:56:28.750Z,2.98
2023-03-06T06:59:01.350Z,3.05
2023-03-06T07:01:36.823Z,3.18
2023-03-06T07:04:03.186Z,3.30
2023-03-06T07:06:29.576Z,3.36
2023-03-06T07:08:56.664Z,3.46
2023-03-06T07:11:23.930Z,3.54
2023-03-06T07:13:50.255Z,3.63
2023-03-06T07:16:16.804Z,3.73
2023-03-06T07:18:43.772Z,3.85
2023-03-06T07:21:10.113Z,3.93
2023-03-06T07:23:36.420Z,3.98
2023-03-06T07:26:02.732Z,4.06
2023-03-06T07:28:29.042Z,4.14
2023-03-06T07:30:55.957Z,4.16
2023-03-06T07:33:22.433Z,4.21
2023-03-06T07:35:48.810Z,4.26
2023-03-06T07:38:15.198Z,4.29
2023-03-06T07:40:41.672Z,4.27
2023-03-06T07:43:18.761Z,4.29
2023-03-06T07:45:45.946Z,4.32
2023-03-06T07:48:13.609Z,4.41
2023-03-06T07:50:40.206Z,4.52
2023-03-06T07:53:06.508Z,4.53
2023-03-06T07:55:32.829Z,4.56
2023-03-06T07:57:59.160Z,4.55
2023-03-06T08:00:25.569Z,4.56
2023-03-06T08:02:51.957Z,4.53
2023-03-06T08:05:18.644Z,4.55
2023-03-06T08:07:45.532Z,4.60
2023-03-06T08:10:15.075Z,4.68
2023-03-06T08:12:41.649Z,4.76
2023-03-06T08:15:10.138Z,4.78
2023-03-06T08:17:36.779Z,4.82
2023-03-06T08:20:03.814Z,4.94
2023-03-06T08:22:30.112Z,4.98
2023-03-06T08:24:57.249Z,5.13
2023-03-06T08:27:23.735Z,5.28
2023-03-06T08:29:50.054Z,5.30
2023-03-06T08:32:16.418Z,5.32
2023-03-06T08:34:42.770Z,5.17
2023-03-06T08:37:09.103Z,5.19
2023-03-06T08:39:35.397Z,5.17
2023-03-06T08:42:01.739Z,5.24
2023-03-06T08:44:28.030Z,5.30
2023-03-06T08:46:54.327Z,5.36
2023-03-06T08:49:20.864Z,5.38
2023-03-06T08:51:47.270Z,5.43
2023-03-06T08:54:13.765Z,5.50
2023-03-06T08:56:40.278Z,5.61
2023-03-06T08:59:06.837Z,5.73
2023-03-06T09:01:36.205Z,5.84
2023-03-06T09:04:04.922Z,5.78
2023-03-06T09:06:34.290Z,5.82
2023-03-06T09:09:00.757Z,5.90
2023-03-06T09:11:28.067Z,5.89
2023-03-06T09:13:54.790Z,5.85
2023-03-06T09:16:21.714Z,5.92
2023-03-06T09:18:48.088Z,5.96
2023-03-06T09:21:14.456Z,6.11
2023-03-06T09:23:40.822Z,6.18
2023-03-06T09:26:07.986Z,6.21
2023-03-06T09:28:38.928Z,6.18
2023-03-06T09:31:15.157Z,6.17
2023-03-06T09:33:41.917Z,6.21
2023-03-06T09:36:14.141Z,6.23
2023-03-06T09:38:40.445Z,6.41
2023-03-06T09:41:22.045Z,6.50
2023-03-06T09:43:51.385Z,6.64
2023-03-06T09:46:42.622Z,6.63
2023-03-06T09:49:42.492Z,6.59
2023-03-06T09:52:27.475Z,6.46
2023-03-06T09:55:00.842Z,6.71
2023-03-06T09:57:38.101Z,6.62
2023-03-06T10:00:11.766Z,6.49
2023-03-06T10:02:41.192Z,6.52
2023-03-06T10:05:26.081Z,6.25
2023-03-06T10:08:01.771Z,6.07
2023-03-06T10:10:40.717Z,6.14
2023-03-06T10:13:20.660Z,5.89
2023-03-06T10:15:48.021Z,5.80
2023-03-06T10:18:14.520Z,5.54
2023-03-06T10:20:45.702Z,5.57
2023-03-06T10:23:18.172Z,5.58
2023-03-06T10:25:53.409Z,5.63
2023-03-06T10:28:44.113Z,5.84
2023-03-06T10:31:20.187Z,6.19
2023-03-06T10:34:14.221Z,6.33
2023-03-06T10:36:40.532Z,6.33
2023-03-06T10:39:15.296Z,6.45
2023-03-06T10:41:41.590Z,6.73
2023-03-06T10:44:07.858Z,6.72
2023-03-06T10:46:37.041Z,6.89
2023-03-06T10:49:25.242Z,6.91
2023-03-06T10:52:19.905Z,6.82
2023-03-06T10:54:46.585Z,6.76
2023-03-06T10:57:30.609Z,6.73
2023-03-06T11:00:02.606Z,6.62
2023-03-06T11:02:32.287Z,6.37
2023-03-06T11:05:01.039Z,6.15
2023-03-06T11:07:35.186Z,5.99
2023-03-06T11:10:16.014Z,6.18
2023-03-06T11:12:43.278Z,6.13
2023-03-06T11:15:15.343Z,5.95
2023-03-06T11:17:57.512Z,5.98
2023-03-06T11:20:52.100Z,5.92
2023-03-06T11:23:36.561Z,5.80
2023-03-06T11:26:18.124Z,5.72
2023-03-06T11:29:17.723Z,5.88
2023-03-06T11:31:51.432Z,5.95
2023-03-06T11:34:20.558Z,5.82
2023-03-06T11:37:07.827Z,5.77
2023-03-06T11:39:43.089Z,5.86
2023-03-06T11:43:01.240Z,5.93
2023-03-06T11:45:34.332Z,5.90
2023-03-06T11:48:15.708Z,5.98
2023-03-06T11:50:48.062Z,6.07
2023-03-06T11:53:32.179Z,6.26
2023-03-06T11:56:20.211Z,6.18
2023-03-06T11:59:14.440Z,6.21
2023-03-06T12:02:09.156Z,6.12
2023-03-06T12:04:44.885Z,6.08
2023-03-06T12:07:35.644Z,6.19
2023-03-06T12:10:19.316Z,6.40
2023-03-06T12:13:05.750Z,6.46
2023-03-06T12:16:15.502Z,6.52
2023-03-06T12:18:52.739Z,6.30
2023-03-06T12:21:37.777Z,6.30
2023-03-06T12:24:30.986Z,6.22
2023-03-06T12:27:17.153Z,6.20
2023-03-06T12:29:58.393Z,6.19
2023-03-06T12:32:43.509Z,6.26
2023-03-06T12:35:36.928Z,6.36
2023-03-06T12:38:18.938Z,6.53
2023-03-06T12:41:04.282Z,6.47
2023-03-06T12:43:33.656Z,6.61
2023-03-06T12:46:09.414Z,6.70
2023-03-06T12:48:37.483Z,6.96
2023-03-06T12:51:07.491Z,6.82
2023-03-06T12:53:35.575Z,6.84
2023-03-06T12:56:03.106Z,6.58
2023-03-06T12:58:29.375Z,6.32
2023-03-06T13:01:04.145Z,6.41
2023-03-06T13:04:02.890Z,6.37
2023-03-06T13:06:53.730Z,6.51
2023-03-06T13:09:48.982Z,6.52
2023-03-06T13:12:47.044Z,6.37
2023-03-06T13:15:32.276Z,6.25
2023-03-06T13:17:59.080Z,6.21
2023-03-06T13:20:34.651Z,6.32
2023-03-06T13:23:28.952Z,6.45
2023-03-06T13:25:56.287Z,6.41
2023-03-06T13:28:38.852Z,6.45
2023-03-06T13:31:07.372Z,6.21
2023-03-06T13:33:36.890Z,6.28
2023-03-06T13:36:32.086Z,6.42
2023-03-06T13:39:01.953Z,6.54
2023-03-06T13:41:31.277Z,6.48
2023-03-06T13:43:59.708Z,6.40
2023-03-06T13:46:32.091Z,6.43
2023-03-06T13:49:07.459Z,6.53
2023-03-06T13:52:02.805Z,6.48
2023-03-06T13:54:35.833Z,6.52
2023-03-06T13:57:08.124Z,6.56
2023-03-06T14:00:08.926Z,6.69
2023-03-06T14:02:54.479Z,6.37
2023-03-06T14:05:21.737Z,6.39
2023-03-06T14:08:02.482Z,6.42
2023-03-06T14:10:33.286Z,6.49
2023-03-06T14:13:15.516Z,6.36
2023-03-06T14:15:48.562Z,6.27
2023-03-06T14:18:19.987Z,6.19
2023-03-06T14:20:51.278Z,5.99
2023-03-06T14:23:37.470Z,5.87
2023-03-06T14:26:16.466Z,5.76
2023-03-06T14:28:52.121Z,5.80
2023-03-06T14:31:21.108Z,5.94
2023-03-06T14:33:55.636Z,6.14
2023-03-06T14:36:26.016Z,5.97
2023-03-06T14:38:59.295Z,5.95
2023-03-06T14:41:27.023Z,5.83
2023-03-06T14:44:23.760Z,5.69
2023-03-06T14:46:55.391Z,5.76
2023-03-06T14:49:24.020Z,5.76
2023-03-06T14:51:53.041Z,5.83
2023-03-06T14:54:27.913Z,5.81
2023-03-06T14:57:01.265Z,5.95
2023-03-06T14:59:30.512Z,5.89
2023-03-06T15:02:01.068Z,6.12
2023-03-06T15:04:46.095Z,6.24
2023-03-06T15:07:25.504Z,6.20
2023-03-06T15:09:54.229Z,6.14
2023-03-06T15:12:20.505Z,6.16
2023-03-06T15:14:49.298Z,6.09
2023-03-06T15:17:18.661Z,6.03
2023-03-06T15:19:47.155Z,5.88
2023-03-06T15:22:26.864Z,5.94
2023-03-06T15:24:54.198Z,5.78
2023-03-06T15:27:29.634Z,5.76
2023-03-06T15:30:22.706Z,5.62
2023-03-06T15:32:49.323Z,5.45
2023-03-06T15:35:24.429Z,5.31
2023-03-06T15:37:51.385Z,5.52
2023-03-06T15:40:23.224Z,5.19
2023-03-06T15:42:49.900Z,5.13
2023-03-06T15:45:21.896Z,4.88
2023-03-06T15:47:50.530Z,4.82
2023-03-06T15:50:28.186Z,4.74
2023-03-06T15:52:54.800Z,4.74
2023-03-06T15:55:24.712Z,4.78
2023-03-06T15:57:56.886Z,4.76
2023-03-06T16:00:29.424Z,4.83
2023-03-06T16:02:57.084Z,4.73
2023-03-06T16:05:24.343Z,4.49
2023-03-06T16:07:50.807Z,4.43
2023-03-06T16:10:19.562Z,4.45
2023-03-06T16:12:49.857Z,4.31
2023-03-06T16:15:47.319Z,4.21
2023-03-06T16:18:13.720Z,4.26
2023-03-06T16:20:40.093Z,4.19
2023-03-06T16:23:06.463Z,4.17
2023-03-06T16:25:32.815Z,4.16
2023-03-06T16:27:59.228Z,4.13
2023-03-06T16:30:27.969Z,4.06
2023-03-06T16:32:54.557Z,4.07
2023-03-06T16:35:21.280Z,4.07
2023-03-06T16:37:47.833Z,4.06
2023-03-06T16:40:16.989Z,3.99
2023-03-06T16:42:43.348Z,4.05
2023-03-06T16:45:10.485Z,3.98
2023-03-06T16:47:36.908Z,3.95
2023-03-06T16:50:04.175Z,3.89
2023-03-06T16:52:30.527Z,3.88
2023-03-06T16:54:56.926Z,3.88
2023-03-06T16:57:23.229Z,3.90
2023-03-06T16:59:49.566Z,3.86
2023-03-06T17:02:15.882Z,3.77
2023-03-06T17:04:42.233Z,3.76
2023-03-06T17:07:08.530Z,3.74
2023-03-06T17:09:34.841Z,3.69
2023-03-06T17:12:01.211Z,3.63
2023-03-06T17:14:27.626Z,3.61
2023-03-06T17:16:53.920Z,3.60
2023-03-06T17:19:20.261Z,3.57
2023-03-06T17:21:46.569Z,3.54
2023-03-06T17:24:12.877Z,3.54
2023-03-06T17:26:39.241Z,3.53
2023-03-06T17:29:07.111Z,3.52
2023-03-06T17:31:33.600Z,3.51
2023-03-06T17:33:59.981Z,3.51
2023-03-06T17:36:27.433Z,3.53
2023-03-06T17:38:58.318Z,3.54
2023-03-06T17:41:24.915Z,3.59
2023-03-06T17:43:52.396Z,3.53
2023-03-06T17:46:19.028Z,3.54
2023-03-06T17:48:45.762Z,3.56
2023-03-06T17:51:12.583Z,3.56
2023-03-06T17:53:39.885Z,3.53
2023-03-06T17:56:12.623Z,3.54
2023-03-06T18:01:18.069Z,3.61
2023-03-06T18:03:46.361Z,3.64
2023-03-06T18:06:12.903Z,3.65
2023-03-06T18:08:39.593Z,3.69
2023-03-06T18:11:07.592Z,3.70
2023-03-06T18:13:37.037Z,3.69
2023-03-06T18:16:04.303Z,3.63
2023-03-06T18:18:31.049Z,3.60
2023-03-06T18:20:57.428Z,3.55
2023-03-06T18:23:23.719Z,3.55
2023-03-06T18:25:50.339Z,3.54
2023-03-06T18:28:16.633Z,3.56
2023-03-06T18:30:42.935Z,3.57
2023-03-06T18:33:09.684Z,3.54
2023-03-06T18:35:36.546Z,3.55
2023-03-06T18:38:02.973Z,3.54
2023-03-06T18:40:29.287Z,3.55
2023-03-06T18:42:55.594Z,3.51
2023-03-06T18:45:21.942Z,3.47
2023-03-06T18:47:48.244Z,3.47
2023-03-06T18:50:14.703Z,3.43
2023-03-06T18:52:41.002Z,3.37
2023-03-06T18:55:07.583Z,3.37
2023-03-06T18:57:33.981Z,3.39
2023-03-06T19:00:00.664Z,3.39
2023-03-06T19:02:27.081Z,3.38
2023-03-06T19:04:53.435Z,3.34
2023-03-06T19:07:19.786Z,3.36
2023-03-06T19:09:48.496Z,3.34
2023-03-06T19:12:14.895Z,3.31
2023-03-06T19:14:41.235Z,3.29
2023-03-06T19:17:07.590Z,3.31
2023-03-06T19:19:34.000Z,3.34
2023-03-06T19:22:00.479Z,3.33
2023-03-06T19:24:26.999Z,3.32
2023-03-06T19:26:53.515Z,3.29
2023-03-06T19:29:19.996Z,3.28
2023-03-06T19:31:46.569Z,3.24
2023-03-06T19:34:12.906Z,3.23
2023-03-06T19:36:39.183Z,3.26
2023-03-06T19:39:06.751Z,3.26
2023-03-06T19:41:33.981Z,3.27
2023-03-06T19:44:01.267Z,3.26
2023-03-06T19:46:27.995Z,3.20
2023-03-06T19:48:56.066Z,3.20
2023-03-06T19:51:22.814Z,3.20
2023-03-06T19:53:49.152Z,3.21
2023-03-06T19:56:21.225Z,3.21
2023-03-06T19:58:47.723Z,3.17
2023-03-06T20:01:17.149Z,3.17
2023-03-06T20:03:44.132Z,3.19
2023-03-06T20:06:13.817Z,3.21
2023-03-06T20:08:40.144Z,3.21
2023-03-06T20:11:06.560Z,3.24
2023-03-06T20:13:32.904Z,3.27
2023-03-06T20:16:02.719Z,3.33
2023-03-06T20:18:29.065Z,3.33
2023-03-06T20:21:04.009Z,3.36
2023-03-06T20:23:31.553Z,3.41
2023-03-06T20:26:02.634Z,3.43
2023-03-06T20:28:28.992Z,3.43
2023-03-06T20:30:55.308Z,3.42
2023-03-06T20:33:21.739Z,3.44
2023-03-06T20:35:48.064Z,3.44
2023-03-06T20:38:14.489Z,3.43
2023-03-06T20:40:42.173Z,3.41
2023-03-06T20:43:08.706Z,3.42
2023-03-06T20:45:35.129Z,3.37
2023-03-06T20:48:01.549Z,3.36
2023-03-06T20:50:27.904Z,3.33
2023-03-06T20:52:55.677Z,3.31
2023-03-06T20:55:22.327Z,3.29
2023-03-06T20:57:49.912Z,3.29
2023-03-06T21:00:17.808Z,3.30
2023-03-06T21:02:44.722Z,3.32
2023-03-06T21:05:11.102Z,3.30
2023-03-06T21:07:37.587Z,3.30
2023-03-06T21:10:04.432Z,3.30
2023-03-06T21:12:30.749Z,3.28
2023-03-06T21:14:57.056Z,3.29
2023-03-06T21:17:23.423Z,3.27
2023-03-06T21:19:49.731Z,3.20
2023-03-06T21:22:16.169Z,3.20
2023-03-06T21:24:42.480Z,3.17
2023-03-06T21:27:08.786Z,3.18
2023-03-06T21:29:35.266Z,3.16
2023-03-06T21:32:01.623Z,3.17
2023-03-06T21:34:27.970Z,3.21
2023-03-06T21:36:54.310Z,3.22
2023-03-06T21:39:20.615Z,3.24
2023-03-06T21:41:46.943Z,3.21
2023-03-06T21:44:13.274Z,3.21
2023-03-06T21:46:39.640Z,3.20
2023-03-06T21:49:05.980Z,3.19
2023-03-06T21:51:32.423Z,3.19
2023-03-06T21:53:58.726Z,3.17
2023-03-06T21:56:25.518Z,3.16
2023-03-06T21:58:52.004Z,3.15
2023-03-06T22:01:22.506Z,3.16
2023-03-06T22:03:48.900Z,3.14
2023-03-06T22:06:21.504Z,3.16
2023-03-06T22:08:47.948Z,3.15
2023-03-06T22:11:16.983Z,3.18
2023-03-06T22:13:44.423Z,3.19
2023-03-06T22:16:11.806Z,3.19
2023-03-06T22:18:38.217Z,3.20
2023-03-06T22:21:09.052Z,3.21
2023-03-06T22:23:35.691Z,3.20
2023-03-06T22:26:03.777Z,3.21
2023-03-06T22:28:30.092Z,3.22
2023-03-06T22:31:02.893Z,3.21
2023-03-06T22:33:29.194Z,3.17
2023-03-06T22:35:59.888Z,3.11
2023-03-06T22:38:26.300Z,3.08
2023-03-06T22:40:56.474Z,3.08
2023-03-06T22:43:22.851Z,3.11
2023-03-06T22:45:49.203Z,3.12
2023-03-06T22:48:15.538Z,3.08
2023-03-06T22:50:41.868Z,3.10
2023-03-06T22:53:08.164Z,3.11
2023-03-06T22:55:35.330Z,3.12
2023-03-06T22:58:02.008Z,3.15
2023-03-06T23:00:28.493Z,3.17
2023-03-06T23:02:54.883Z,3.20
2023-03-06T23:05:21.621Z,3.21
2023-03-06T23:07:48.220Z,3.16
2023-03-06T23:10:14.495Z,3.11
2023-03-06T23:12:40.919Z,3.15
2023-03-06T23:15:07.797Z,3.16
2023-03-06T23:17:34.414Z,3.14
2023-03-06T23:20:00.730Z,3.09
2023-03-06T23:22:27.022Z,3.08
2023-03-06T23:24:53.395Z,3.08
2023-03-06T23:27:19.675Z,3.05
2023-03-06T23:29:49.674Z,3.06
2023-03-06T23:32:16.029Z,3.08
2023-03-06T23:34:42.574Z,3.05
2023-03-06T23:37:08.901Z,3.01
2023-03-06T23:39:35.333Z,3.00
2023-03-06T23:42:01.807Z,3.01
2023-03-06T23:44:28.219Z,2.99
2023-03-06T23:46:54.504Z,2.98
2023-03-06T23:49:21.945Z,2.95
2023-03-06T23:51:48.342Z,2.94
2023-03-06T23:54:14.771Z,2.95
2023-03-06T23:56:41.075Z,2.93
2023-03-06T23:59:07.499Z,2.93
